sensor_id;sensor_type;location;lat;lon;timestamp;P1;durP1;ratioP1;P2;durP2;ratioP2
26594;SDS011;14238;49.496;8.154;2024-02-16T00:00:22;2.73;;;2.27;;
26594;SDS011;14238;49.496;8.154;2024-02-16T00:02:49;3.23;;;2.20;;
26594;SDS011;14238;49.496;8.154;2024-02-16T00:05:14;2.60;;;2.40;;
26594;SDS011;14238;49.496;8.154;2024-02-16T00:07:40;3.13;;;2.60;;
26594;SDS011;14238;49.496;8.154;2024-02-16T00:10:06;2.50;;;2.10;;
26594;SDS011;14238;49.496;8.154;2024-02-16T00:12:33;3.10;;;2.90;;
26594;SDS011;14238;49.496;8.154;2024-02-16T00:15:00;3.10;;;2.80;;
26594;SDS011;14238;49.496;8.154;2024-02-16T00:17:26;3.20;;;2.90;;
26594;SDS011;14238;49.496;8.154;2024-02-16T00:19:55;3.93;;;3.03;;
26594;SDS011;14238;49.496;8.154;2024-02-16T00:22:22;4.30;;;3.23;;
26594;SDS011;14238;49.496;8.154;2024-02-16T00:24:47;3.27;;;3.00;;
26594;SDS011;14238;49.496;8.154;2024-02-16T00:27:13;3.43;;;3.13;;
26594;SDS011;14238;49.496;8.154;2024-02-16T00:29:39;3.10;;;2.80;;
26594;SDS011;14238;49.496;8.154;2024-02-16T00:32:05;3.27;;;2.97;;
26594;SDS011;14238;49.496;8.154;2024-02-16T00:34:32;4.37;;;3.13;;
26594;SDS011;14238;49.496;8.154;2024-02-16T00:36:58;3.77;;;3.33;;
26594;SDS011;14238;49.496;8.154;2024-02-16T00:39:23;3.37;;;3.03;;
26594;SDS011;14238;49.496;8.154;2024-02-16T00:41:51;2.83;;;2.63;;
26594;SDS011;14238;49.496;8.154;2024-02-16T00:44:17;2.93;;;2.73;;
26594;SDS011;14238;49.496;8.154;2024-02-16T00:46:43;3.47;;;2.77;;
26594;SDS011;14238;49.496;8.154;2024-02-16T00:49:08;3.10;;;2.90;;
26594;SDS011;14238;49.496;8.154;2024-02-16T00:51:35;3.77;;;3.20;;
26594;SDS011;14238;49.496;8.154;2024-02-16T00:54:01;3.80;;;2.97;;
26594;SDS011;14238;49.496;8.154;2024-02-16T00:56:28;5.00;;;3.00;;
26594;SDS011;14238;49.496;8.154;2024-02-16T00:58:54;4.07;;;3.77;;
26594;SDS011;14238;49.496;8.154;2024-02-16T01:01:19;3.70;;;2.93;;
26594;SDS011;14238;49.496;8.154;2024-02-16T01:03:47;4.43;;;4.03;;
26594;SDS011;14238;49.496;8.154;2024-02-16T01:06:17;5.13;;;4.73;;
26594;SDS011;14238;49.496;8.154;2024-02-16T01:08:42;6.67;;;5.93;;
26594;SDS011;14238;49.496;8.154;2024-02-16T01:11:08;7.73;;;6.23;;
26594;SDS011;14238;49.496;8.154;2024-02-16T01:13:33;6.60;;;5.97;;
26594;SDS011;14238;49.496;8.154;2024-02-16T01:15:59;8.17;;;6.40;;
26594;SDS011;14238;49.496;8.154;2024-02-16T01:18:25;6.43;;;5.90;;
26594;SDS011;14238;49.496;8.154;2024-02-16T01:20:52;5.80;;;5.30;;
26594;SDS011;14238;49.496;8.154;2024-02-16T01:23:18;5.83;;;5.40;;
26594;SDS011;14238;49.496;8.154;2024-02-16T01:25:44;6.33;;;5.80;;
26594;SDS011;14238;49.496;8.154;2024-02-16T01:28:11;7.73;;;5.20;;
26594;SDS011;14238;49.496;8.154;2024-02-16T01:30:37;5.60;;;5.10;;
26594;SDS011;14238;49.496;8.154;2024-02-16T01:33:03;6.37;;;5.07;;
26594;SDS011;14238;49.496;8.154;2024-02-16T01:35:30;5.60;;;5.20;;
26594;SDS011;14238;49.496;8.154;2024-02-16T01:37:55;4.90;;;4.60;;
26594;SDS011;14238;49.496;8.154;2024-02-16T01:40:21;5.53;;;5.07;;
26594;SDS011;14238;49.496;8.154;2024-02-16T01:42:47;6.50;;;5.90;;
26594;SDS011;14238;49.496;8.154;2024-02-16T01:45:13;5.47;;;4.97;;
26594;SDS011;14238;49.496;8.154;2024-02-16T01:47:38;6.07;;;5.20;;
26594;SDS011;14238;49.496;8.154;2024-02-16T01:50:06;6.60;;;5.97;;
26594;SDS011;14238;49.496;8.154;2024-02-16T01:52:33;4.70;;;4.40;;
26594;SDS011;14238;49.496;8.154;2024-02-16T01:55:00;6.20;;;5.70;;
26594;SDS011;14238;49.496;8.154;2024-02-16T01:57:28;5.60;;;5.13;;
26594;SDS011;14238;49.496;8.154;2024-02-16T01:59:54;6.13;;;5.53;;
26594;SDS011;14238;49.496;8.154;2024-02-16T02:02:20;6.97;;;6.00;;
26594;SDS011;14238;49.496;8.154;2024-02-16T02:04:45;6.30;;;5.70;;
26594;SDS011;14238;49.496;8.154;2024-02-16T02:07:15;5.93;;;5.43;;
26594;SDS011;14238;49.496;8.154;2024-02-16T02:09:41;8.87;;;7.00;;
26594;SDS011;14238;49.496;8.154;2024-02-16T02:12:07;7.73;;;7.03;;
26594;SDS011;14238;49.496;8.154;2024-02-16T02:14:34;6.53;;;6.03;;
26594;SDS011;14238;49.496;8.154;2024-02-16T02:17:01;7.10;;;6.50;;
26594;SDS011;14238;49.496;8.154;2024-02-16T02:19:28;7.10;;;6.60;;
26594;SDS011;14238;49.496;8.154;2024-02-16T02:21:54;6.73;;;5.83;;
26594;SDS011;14238;49.496;8.154;2024-02-16T02:24:20;7.47;;;6.67;;
26594;SDS011;14238;49.496;8.154;2024-02-16T02:26:46;6.73;;;6.13;;
26594;SDS011;14238;49.496;8.154;2024-02-16T02:29:12;7.80;;;7.10;;
26594;SDS011;14238;49.496;8.154;2024-02-16T02:31:37;9.53;;;8.63;;
26594;SDS011;14238;49.496;8.154;2024-02-16T02:34:03;9.53;;;8.67;;
26594;SDS011;14238;49.496;8.154;2024-02-16T02:36:30;8.77;;;7.97;;
26594;SDS011;14238;49.496;8.154;2024-02-16T02:38:56;8.43;;;7.73;;
26594;SDS011;14238;49.496;8.154;2024-02-16T02:41:22;8.93;;;8.13;;
26594;SDS011;14238;49.496;8.154;2024-02-16T02:43:48;8.90;;;8.20;;
26594;SDS011;14238;49.496;8.154;2024-02-16T02:46:17;10.47;;;8.73;;
26594;SDS011;14238;49.496;8.154;2024-02-16T02:48:45;8.97;;;8.27;;
26594;SDS011;14238;49.496;8.154;2024-02-16T02:51:11;9.73;;;8.83;;
26594;SDS011;14238;49.496;8.154;2024-02-16T02:53:37;9.27;;;8.47;;
26594;SDS011;14238;49.496;8.154;2024-02-16T02:56:03;8.17;;;7.47;;
26594;SDS011;14238;49.496;8.154;2024-02-16T02:58:29;9.80;;;8.20;;
26594;SDS011;14238;49.496;8.154;2024-02-16T03:00:55;8.43;;;7.73;;
26594;SDS011;14238;49.496;8.154;2024-02-16T03:03:21;7.40;;;6.80;;
26594;SDS011;14238;49.496;8.154;2024-02-16T03:05:47;7.67;;;7.07;;
26594;SDS011;14238;49.496;8.154;2024-02-16T03:08:13;7.20;;;6.60;;
26594;SDS011;14238;49.496;8.154;2024-02-16T03:10:39;7.43;;;6.83;;
26594;SDS011;14238;49.496;8.154;2024-02-16T03:13:05;7.63;;;7.10;;
26594;SDS011;14238;49.496;8.154;2024-02-16T03:15:32;7.40;;;6.73;;
26594;SDS011;14238;49.496;8.154;2024-02-16T03:17:58;8.20;;;7.40;;
26594;SDS011;14238;49.496;8.154;2024-02-16T03:20:24;10.20;;;7.70;;
26594;SDS011;14238;49.496;8.154;2024-02-16T03:22:50;9.10;;;8.20;;
26594;SDS011;14238;49.496;8.154;2024-02-16T03:25:15;7.97;;;7.10;;
26594;SDS011;14238;49.496;8.154;2024-02-16T03:27:41;8.60;;;6.70;;
26594;SDS011;14238;49.496;8.154;2024-02-16T03:30:08;7.83;;;7.03;;
26594;SDS011;14238;49.496;8.154;2024-02-16T03:32:33;8.30;;;7.60;;
26594;SDS011;14238;49.496;8.154;2024-02-16T03:34:59;7.60;;;6.93;;
26594;SDS011;14238;49.496;8.154;2024-02-16T03:37:25;7.30;;;6.60;;
26594;SDS011;14238;49.496;8.154;2024-02-16T03:39:50;7.60;;;7.00;;
26594;SDS011;14238;49.496;8.154;2024-02-16T03:42:18;6.60;;;6.10;;
26594;SDS011;14238;49.496;8.154;2024-02-16T03:44:44;7.60;;;6.90;;
26594;SDS011;14238;49.496;8.154;2024-02-16T03:47:10;7.47;;;6.87;;
26594;SDS011;14238;49.496;8.154;2024-02-16T03:49:35;8.50;;;7.40;;
26594;SDS011;14238;49.496;8.154;2024-02-16T03:52:01;8.40;;;7.57;;
26594;SDS011;14238;49.496;8.154;2024-02-16T03:54:27;7.57;;;6.90;;
26594;SDS011;14238;49.496;8.154;2024-02-16T03:56:53;7.33;;;6.63;;
26594;SDS011;14238;49.496;8.154;2024-02-16T03:59:19;8.30;;;7.60;;
26594;SDS011;14238;49.496;8.154;2024-02-16T04:01:45;8.30;;;7.60;;
26594;SDS011;14238;49.496;8.154;2024-02-16T04:04:11;8.20;;;7.40;;
26594;SDS011;14238;49.496;8.154;2024-02-16T04:06:38;8.30;;;7.60;;
26594;SDS011;14238;49.496;8.154;2024-02-16T04:09:03;9.00;;;8.27;;
26594;SDS011;14238;49.496;8.154;2024-02-16T04:11:31;7.60;;;6.80;;
26594;SDS011;14238;49.496;8.154;2024-02-16T04:13:57;9.03;;;6.90;;
26594;SDS011;14238;49.496;8.154;2024-02-16T04:16:22;6.80;;;6.10;;
26594;SDS011;14238;49.496;8.154;2024-02-16T04:18:49;8.63;;;7.13;;
26594;SDS011;14238;49.496;8.154;2024-02-16T04:21:15;7.27;;;6.57;;
26594;SDS011;14238;49.496;8.154;2024-02-16T04:23:41;7.73;;;7.03;;
26594;SDS011;14238;49.496;8.154;2024-02-16T04:26:07;8.33;;;7.53;;
26594;SDS011;14238;49.496;8.154;2024-02-16T04:28:33;7.97;;;7.37;;
26594;SDS011;14238;49.496;8.154;2024-02-16T04:30:59;9.27;;;8.10;;
26594;SDS011;14238;49.496;8.154;2024-02-16T04:33:25;8.60;;;7.77;;
26594;SDS011;14238;49.496;8.154;2024-02-16T04:35:50;9.20;;;8.20;;
26594;SDS011;14238;49.496;8.154;2024-02-16T04:38:16;8.80;;;7.90;;
26594;SDS011;14238;49.496;8.154;2024-02-16T04:40:42;8.70;;;8.00;;
26594;SDS011;14238;49.496;8.154;2024-02-16T04:43:08;9.07;;;8.17;;
26594;SDS011;14238;49.496;8.154;2024-02-16T04:45:34;7.97;;;7.37;;
26594;SDS011;14238;49.496;8.154;2024-02-16T04:48:04;8.70;;;8.00;;
26594;SDS011;14238;49.496;8.154;2024-02-16T04:50:31;8.63;;;7.63;;
26594;SDS011;14238;49.496;8.154;2024-02-16T04:52:57;10.03;;;7.93;;
26594;SDS011;14238;49.496;8.154;2024-02-16T04:55:22;7.97;;;7.27;;
26594;SDS011;14238;49.496;8.154;2024-02-16T04:57:48;7.80;;;7.10;;
26594;SDS011;14238;49.496;8.154;2024-02-16T05:00:14;8.53;;;7.70;;
26594;SDS011;14238;49.496;8.154;2024-02-16T05:02:40;8.73;;;7.83;;
26594;SDS011;14238;49.496;8.154;2024-02-16T05:05:06;9.17;;;8.23;;
26594;SDS011;14238;49.496;8.154;2024-02-16T05:07:32;8.90;;;7.60;;
26594;SDS011;14238;49.496;8.154;2024-02-16T05:09:59;8.63;;;7.83;;
26594;SDS011;14238;49.496;8.154;2024-02-16T05:12:26;8.57;;;7.80;;
26594;SDS011;14238;49.496;8.154;2024-02-16T05:14:51;9.13;;;8.33;;
26594;SDS011;14238;49.496;8.154;2024-02-16T05:17:18;7.83;;;7.20;;
26594;SDS011;14238;49.496;8.154;2024-02-16T05:19:44;8.20;;;7.50;;
26594;SDS011;14238;49.496;8.154;2024-02-16T05:22:10;8.10;;;7.30;;
26594;SDS011;14238;49.496;8.154;2024-02-16T05:24:36;7.93;;;7.30;;
26594;SDS011;14238;49.496;8.154;2024-02-16T05:27:02;7.40;;;6.80;;
26594;SDS011;14238;49.496;8.154;2024-02-16T05:29:28;8.40;;;7.70;;
26594;SDS011;14238;49.496;8.154;2024-02-16T05:31:53;8.10;;;7.20;;
26594;SDS011;14238;49.496;8.154;2024-02-16T05:34:19;7.37;;;6.67;;
26594;SDS011;14238;49.496;8.154;2024-02-16T05:36:44;11.53;;;7.60;;
26594;SDS011;14238;49.496;8.154;2024-02-16T05:39:10;7.83;;;7.07;;
26594;SDS011;14238;49.496;8.154;2024-02-16T05:41:48;6.93;;;6.33;;
26594;SDS011;14238;49.496;8.154;2024-02-16T05:44:14;7.27;;;6.53;;
26594;SDS011;14238;49.496;8.154;2024-02-16T05:46:40;7.40;;;6.70;;
26594;SDS011;14238;49.496;8.154;2024-02-16T05:49:05;7.33;;;6.73;;
26594;SDS011;14238;49.496;8.154;2024-02-16T05:51:34;7.20;;;6.60;;
26594;SDS011;14238;49.496;8.154;2024-02-16T05:54:01;6.73;;;6.20;;
26594;SDS011;14238;49.496;8.154;2024-02-16T05:56:27;7.37;;;6.80;;
26594;SDS011;14238;49.496;8.154;2024-02-16T05:58:53;7.80;;;7.23;;
26594;SDS011;14238;49.496;8.154;2024-02-16T06:01:18;7.73;;;6.37;;
26594;SDS011;14238;49.496;8.154;2024-02-16T06:03:44;7.90;;;7.10;;
26594;SDS011;14238;49.496;8.154;2024-02-16T06:06:09;10.10;;;7.20;;
26594;SDS011;14238;49.496;8.154;2024-02-16T06:08:35;8.83;;;8.13;;
26594;SDS011;14238;49.496;8.154;2024-02-16T06:11:01;7.80;;;7.10;;
26594;SDS011;14238;49.496;8.154;2024-02-16T06:13:27;7.70;;;6.90;;
26594;SDS011;14238;49.496;8.154;2024-02-16T06:15:54;10.27;;;7.07;;
26594;SDS011;14238;49.496;8.154;2024-02-16T06:18:20;8.63;;;7.83;;
26594;SDS011;14238;49.496;8.154;2024-02-16T06:20:45;8.40;;;7.60;;
26594;SDS011;14238;49.496;8.154;2024-02-16T06:23:11;9.63;;;8.73;;
26594;SDS011;14238;49.496;8.154;2024-02-16T06:25:37;11.37;;;10.37;;
26594;SDS011;14238;49.496;8.154;2024-02-16T06:28:02;9.37;;;8.50;;
26594;SDS011;14238;49.496;8.154;2024-02-16T06:30:29;13.00;;;9.90;;
26594;SDS011;14238;49.496;8.154;2024-02-16T06:32:55;8.80;;;8.00;;
26594;SDS011;14238;49.496;8.154;2024-02-16T06:35:20;7.93;;;7.23;;
26594;SDS011;14238;49.496;8.154;2024-02-16T06:37:46;7.83;;;7.17;;
26594;SDS011;14238;49.496;8.154;2024-02-16T06:40:11;9.40;;;8.60;;
26594;SDS011;14238;49.496;8.154;2024-02-16T06:42:38;7.40;;;6.67;;
26594;SDS011;14238;49.496;8.154;2024-02-16T06:45:04;8.20;;;7.50;;
26594;SDS011;14238;49.496;8.154;2024-02-16T06:47:30;8.07;;;7.27;;
26594;SDS011;14238;49.496;8.154;2024-02-16T06:49:56;7.60;;;7.00;;
26594;SDS011;14238;49.496;8.154;2024-02-16T06:52:22;8.10;;;7.40;;
26594;SDS011;14238;49.496;8.154;2024-02-16T06:54:48;7.73;;;7.03;;
26594;SDS011;14238;49.496;8.154;2024-02-16T06:57:15;9.80;;;8.90;;
26594;SDS011;14238;49.496;8.154;2024-02-16T06:59:41;9.07;;;8.23;;
26594;SDS011;14238;49.496;8.154;2024-02-16T07:02:06;9.40;;;8.60;;
26594;SDS011;14238;49.496;8.154;2024-02-16T07:04:32;9.80;;;9.00;;
26594;SDS011;14238;49.496;8.154;2024-02-16T07:06:58;7.60;;;7.00;;
26594;SDS011;14238;49.496;8.154;2024-02-16T07:09:24;7.37;;;6.77;;
26594;SDS011;14238;49.496;8.154;2024-02-16T07:11:50;10.13;;;9.23;;
26594;SDS011;14238;49.496;8.154;2024-02-16T07:14:16;13.00;;;10.23;;
26594;SDS011;14238;49.496;8.154;2024-02-16T07:16:42;10.77;;;9.77;;
26594;SDS011;14238;49.496;8.154;2024-02-16T07:19:08;10.53;;;9.47;;
26594;SDS011;14238;49.496;8.154;2024-02-16T07:21:34;9.60;;;8.73;;
26594;SDS011;14238;49.496;8.154;2024-02-16T07:23:59;9.57;;;8.70;;
26594;SDS011;14238;49.496;8.154;2024-02-16T07:26:25;7.87;;;7.17;;
26594;SDS011;14238;49.496;8.154;2024-02-16T07:28:51;6.80;;;6.30;;
26594;SDS011;14238;49.496;8.154;2024-02-16T07:31:16;8.73;;;7.93;;
26594;SDS011;14238;49.496;8.154;2024-02-16T07:33:42;9.10;;;8.30;;
26594;SDS011;14238;49.496;8.154;2024-02-16T07:36:07;10.20;;;9.40;;
26594;SDS011;14238;49.496;8.154;2024-02-16T07:38:33;10.80;;;9.90;;
26594;SDS011;14238;49.496;8.154;2024-02-16T07:40:59;12.10;;;11.00;;
26594;SDS011;14238;49.496;8.154;2024-02-16T07:43:25;11.10;;;10.17;;
26594;SDS011;14238;49.496;8.154;2024-02-16T07:45:51;12.23;;;10.07;;
26594;SDS011;14238;49.496;8.154;2024-02-16T07:48:19;8.30;;;7.50;;
26594;SDS011;14238;49.496;8.154;2024-02-16T07:50:47;8.90;;;8.10;;
26594;SDS011;14238;49.496;8.154;2024-02-16T07:53:15;9.53;;;8.63;;
26594;SDS011;14238;49.496;8.154;2024-02-16T07:55:41;8.53;;;7.73;;
26594;SDS011;14238;49.496;8.154;2024-02-16T07:58:06;9.33;;;8.30;;
26594;SDS011;14238;49.496;8.154;2024-02-16T08:00:32;9.70;;;8.87;;
26594;SDS011;14238;49.496;8.154;2024-02-16T08:02:58;8.73;;;8.03;;
26594;SDS011;14238;49.496;8.154;2024-02-16T08:05:24;9.10;;;8.40;;
26594;SDS011;14238;49.496;8.154;2024-02-16T08:07:50;10.43;;;8.33;;
26594;SDS011;14238;49.496;8.154;2024-02-16T08:10:18;9.33;;;8.63;;
26594;SDS011;14238;49.496;8.154;2024-02-16T08:12:45;10.77;;;9.03;;
26594;SDS011;14238;49.496;8.154;2024-02-16T08:15:11;9.70;;;8.87;;
26594;SDS011;14238;49.496;8.154;2024-02-16T08:17:39;9.70;;;8.90;;
26594;SDS011;14238;49.496;8.154;2024-02-16T08:20:07;10.73;;;9.70;;
26594;SDS011;14238;49.496;8.154;2024-02-16T08:22:32;11.93;;;9.87;;
26594;SDS011;14238;49.496;8.154;2024-02-16T08:24:59;12.60;;;11.53;;
26594;SDS011;14238;49.496;8.154;2024-02-16T08:27:25;12.17;;;11.07;;
26594;SDS011;14238;49.496;8.154;2024-02-16T08:29:51;12.47;;;11.33;;
26594;SDS011;14238;49.496;8.154;2024-02-16T08:32:17;13.60;;;12.33;;
26594;SDS011;14238;49.496;8.154;2024-02-16T08:34:45;12.20;;;11.20;;
26594;SDS011;14238;49.496;8.154;2024-02-16T08:37:13;11.13;;;10.13;;
26594;SDS011;14238;49.496;8.154;2024-02-16T08:39:39;11.70;;;10.70;;
26594;SDS011;14238;49.496;8.154;2024-02-16T08:42:06;11.50;;;10.53;;
26594;SDS011;14238;49.496;8.154;2024-02-16T08:44:33;12.47;;;11.20;;
26594;SDS011;14238;49.496;8.154;2024-02-16T08:46:59;12.17;;;11.07;;
26594;SDS011;14238;49.496;8.154;2024-02-16T08:49:25;12.60;;;11.27;;
26594;SDS011;14238;49.496;8.154;2024-02-16T08:51:50;11.60;;;10.40;;
26594;SDS011;14238;49.496;8.154;2024-02-16T08:54:16;11.10;;;9.50;;
26594;SDS011;14238;49.496;8.154;2024-02-16T08:56:43;10.40;;;9.60;;
26594;SDS011;14238;49.496;8.154;2024-02-16T08:59:09;10.90;;;10.00;;
26594;SDS011;14238;49.496;8.154;2024-02-16T09:01:36;10.83;;;9.73;;
26594;SDS011;14238;49.496;8.154;2024-02-16T09:04:02;11.70;;;9.13;;
26594;SDS011;14238;49.496;8.154;2024-02-16T09:06:29;10.37;;;9.47;;
26594;SDS011;14238;49.496;8.154;2024-02-16T09:08:55;10.30;;;9.30;;
26594;SDS011;14238;49.496;8.154;2024-02-16T09:11:22;10.17;;;9.23;;
26594;SDS011;14238;49.496;8.154;2024-02-16T09:13:48;11.47;;;10.37;;
26594;SDS011;14238;49.496;8.154;2024-02-16T09:16:14;11.50;;;10.53;;
26594;SDS011;14238;49.496;8.154;2024-02-16T09:18:42;13.10;;;11.80;;
26594;SDS011;14238;49.496;8.154;2024-02-16T09:21:10;11.53;;;10.43;;
26594;SDS011;14238;49.496;8.154;2024-02-16T09:23:36;11.27;;;10.27;;
26594;SDS011;14238;49.496;8.154;2024-02-16T09:26:02;11.73;;;10.70;;
26594;SDS011;14238;49.496;8.154;2024-02-16T09:28:28;11.80;;;10.80;;
26594;SDS011;14238;49.496;8.154;2024-02-16T09:30:55;11.77;;;10.77;;
26594;SDS011;14238;49.496;8.154;2024-02-16T09:33:21;10.47;;;9.53;;
26594;SDS011;14238;49.496;8.154;2024-02-16T09:35:47;10.90;;;9.80;;
26594;SDS011;14238;49.496;8.154;2024-02-16T09:38:15;11.23;;;10.33;;
26594;SDS011;14238;49.496;8.154;2024-02-16T09:40:43;11.13;;;10.27;;
26594;SDS011;14238;49.496;8.154;2024-02-16T09:43:09;11.50;;;10.30;;
26594;SDS011;14238;49.496;8.154;2024-02-16T09:45:34;10.57;;;9.50;;
26594;SDS011;14238;49.496;8.154;2024-02-16T09:48:00;11.10;;;9.53;;
26594;SDS011;14238;49.496;8.154;2024-02-16T09:50:27;10.87;;;9.53;;
26594;SDS011;14238;49.496;8.154;2024-02-16T09:52:55;12.30;;;11.20;;
26594;SDS011;14238;49.496;8.154;2024-02-16T09:55:22;13.70;;;12.30;;
26594;SDS011;14238;49.496;8.154;2024-02-16T09:57:58;10.67;;;9.87;;
26594;SDS011;14238;49.496;8.154;2024-02-16T10:00:24;10.83;;;9.77;;
26594;SDS011;14238;49.496;8.154;2024-02-16T10:02:51;13.57;;;12.00;;
26594;SDS011;14238;49.496;8.154;2024-02-16T10:05:21;11.67;;;10.57;;
26594;SDS011;14238;49.496;8.154;2024-02-16T10:07:48;10.73;;;9.60;;
26594;SDS011;14238;49.496;8.154;2024-02-16T10:12:49;14.23;;;10.10;;
26594;SDS011;14238;49.496;8.154;2024-02-16T10:15:21;10.57;;;9.67;;
26594;SDS011;14238;49.496;8.154;2024-02-16T10:18:02;10.47;;;9.63;;
26594;SDS011;14238;49.496;8.154;2024-02-16T10:20:32;10.27;;;9.10;;
26594;SDS011;14238;49.496;8.154;2024-02-16T10:25:35;10.50;;;9.50;;
26594;SDS011;14238;49.496;8.154;2024-02-16T10:28:04;9.50;;;8.70;;
26594;SDS011;14238;49.496;8.154;2024-02-16T10:30:33;9.30;;;8.40;;
26594;SDS011;14238;49.496;8.154;2024-02-16T10:33:00;8.17;;;7.53;;
26594;SDS011;14238;49.496;8.154;2024-02-16T10:35:27;9.03;;;8.13;;
26594;SDS011;14238;49.496;8.154;2024-02-16T10:37:56;8.37;;;7.57;;
26594;SDS011;14238;49.496;8.154;2024-02-16T10:40:24;9.60;;;8.80;;
26594;SDS011;14238;49.496;8.154;2024-02-16T10:42:54;26.67;;;17.50;;
26594;SDS011;14238;49.496;8.154;2024-02-16T10:45:23;25.97;;;18.17;;
26594;SDS011;14238;49.496;8.154;2024-02-16T10:47:52;13.27;;;9.77;;
26594;SDS011;14238;49.496;8.154;2024-02-16T10:50:20;7.37;;;6.67;;
26594;SDS011;14238;49.496;8.154;2024-02-16T10:52:48;7.33;;;5.10;;
26594;SDS011;14238;49.496;8.154;2024-02-16T10:55:18;4.93;;;4.57;;
26594;SDS011;14238;49.496;8.154;2024-02-16T10:57:48;3.70;;;3.20;;
26594;SDS011;14238;49.496;8.154;2024-02-16T11:00:20;2.80;;;2.50;;
26594;SDS011;14238;49.496;8.154;2024-02-16T11:02:55;3.43;;;3.10;;
26594;SDS011;14238;49.496;8.154;2024-02-16T11:05:33;3.50;;;2.73;;
26594;SDS011;14238;49.496;8.154;2024-02-16T11:08:02;3.43;;;2.30;;
26594;SDS011;14238;49.496;8.154;2024-02-16T11:10:31;2.90;;;2.43;;
26594;SDS011;14238;49.496;8.154;2024-02-16T11:13:01;6.33;;;2.80;;
26594;SDS011;14238;49.496;8.154;2024-02-16T11:15:33;2.70;;;2.30;;
26594;SDS011;14238;49.496;8.154;2024-02-16T11:18:02;3.73;;;2.73;;
26594;SDS011;14238;49.496;8.154;2024-02-16T11:20:38;3.57;;;2.23;;
26594;SDS011;14238;49.496;8.154;2024-02-16T11:23:08;3.13;;;2.17;;
26594;SDS011;14238;49.496;8.154;2024-02-16T11:25:36;2.63;;;2.43;;
26594;SDS011;14238;49.496;8.154;2024-02-16T11:28:04;2.80;;;2.60;;
26594;SDS011;14238;49.496;8.154;2024-02-16T11:30:33;3.93;;;2.87;;
26594;SDS011;14238;49.496;8.154;2024-02-16T11:33:01;2.50;;;2.30;;
26594;SDS011;14238;49.496;8.154;2024-02-16T11:35:30;2.47;;;2.13;;
26594;SDS011;14238;49.496;8.154;2024-02-16T11:38:01;5.07;;;2.97;;
26594;SDS011;14238;49.496;8.154;2024-02-16T11:40:30;4.37;;;3.27;;
26594;SDS011;14238;49.496;8.154;2024-02-16T11:43:00;3.33;;;2.17;;
26594;SDS011;14238;49.496;8.154;2024-02-16T11:45:33;2.57;;;2.40;;
26594;SDS011;14238;49.496;8.154;2024-02-16T11:48:03;2.83;;;2.47;;
26594;SDS011;14238;49.496;8.154;2024-02-16T11:50:32;2.50;;;2.30;;
26594;SDS011;14238;49.496;8.154;2024-02-16T11:53:01;3.97;;;3.00;;
26594;SDS011;14238;49.496;8.154;2024-02-16T11:55:30;2.77;;;2.57;;
26594;SDS011;14238;49.496;8.154;2024-02-16T11:58:00;2.70;;;2.50;;
26594;SDS011;14238;49.496;8.154;2024-02-16T12:00:27;4.20;;;2.67;;
26594;SDS011;14238;49.496;8.154;2024-02-16T12:02:59;4.57;;;2.60;;
26594;SDS011;14238;49.496;8.154;2024-02-16T12:05:26;3.50;;;2.80;;
26594;SDS011;14238;49.496;8.154;2024-02-16T12:07:52;4.90;;;3.20;;
26594;SDS011;14238;49.496;8.154;2024-02-16T12:10:19;2.93;;;2.73;;
26594;SDS011;14238;49.496;8.154;2024-02-16T12:12:47;3.60;;;2.73;;
26594;SDS011;14238;49.496;8.154;2024-02-16T12:15:12;5.50;;;2.50;;
26594;SDS011;14238;49.496;8.154;2024-02-16T12:17:38;6.93;;;2.63;;
26594;SDS011;14238;49.496;8.154;2024-02-16T12:20:10;4.03;;;2.60;;
26594;SDS011;14238;49.496;8.154;2024-02-16T12:22:39;2.63;;;2.43;;
26594;SDS011;14238;49.496;8.154;2024-02-16T12:25:04;2.80;;;2.60;;
26594;SDS011;14238;49.496;8.154;2024-02-16T12:27:31;2.27;;;2.17;;
26594;SDS011;14238;49.496;8.154;2024-02-16T12:30:00;2.90;;;2.10;;
26594;SDS011;14238;49.496;8.154;2024-02-16T12:32:27;5.77;;;2.00;;
26594;SDS011;14238;49.496;8.154;2024-02-16T12:34:54;3.00;;;2.73;;
26594;SDS011;14238;49.496;8.154;2024-02-16T12:37:22;2.37;;;2.17;;
26594;SDS011;14238;49.496;8.154;2024-02-16T12:39:48;2.80;;;2.60;;
26594;SDS011;14238;49.496;8.154;2024-02-16T12:42:14;2.83;;;2.63;;
26594;SDS011;14238;49.496;8.154;2024-02-16T12:44:41;4.47;;;2.93;;
26594;SDS011;14238;49.496;8.154;2024-02-16T12:47:08;3.03;;;2.73;;
26594;SDS011;14238;49.496;8.154;2024-02-16T12:49:34;2.83;;;2.50;;
26594;SDS011;14238;49.496;8.154;2024-02-16T12:52:00;2.80;;;2.60;;
26594;SDS011;14238;49.496;8.154;2024-02-16T12:54:26;4.63;;;2.80;;
26594;SDS011;14238;49.496;8.154;2024-02-16T12:56:51;6.27;;;2.67;;
26594;SDS011;14238;49.496;8.154;2024-02-16T12:59:18;2.77;;;2.40;;
26594;SDS011;14238;49.496;8.154;2024-02-16T13:01:44;4.40;;;2.83;;
26594;SDS011;14238;49.496;8.154;2024-02-16T13:04:10;5.60;;;2.30;;
26594;SDS011;14238;49.496;8.154;2024-02-16T13:06:37;2.40;;;2.20;;
26594;SDS011;14238;49.496;8.154;2024-02-16T13:09:03;3.03;;;2.33;;
26594;SDS011;14238;49.496;8.154;2024-02-16T13:11:29;3.17;;;2.83;;
26594;SDS011;14238;49.496;8.154;2024-02-16T13:13:55;2.90;;;2.67;;
26594;SDS011;14238;49.496;8.154;2024-02-16T13:16:21;2.77;;;2.53;;
26594;SDS011;14238;49.496;8.154;2024-02-16T13:18:46;2.80;;;2.47;;
26594;SDS011;14238;49.496;8.154;2024-02-16T13:21:12;3.87;;;3.03;;
26594;SDS011;14238;49.496;8.154;2024-02-16T13:23:40;2.37;;;2.20;;
26594;SDS011;14238;49.496;8.154;2024-02-16T13:26:07;4.20;;;2.53;;
26594;SDS011;14238;49.496;8.154;2024-02-16T13:28:34;3.20;;;2.40;;
26594;SDS011;14238;49.496;8.154;2024-02-16T13:30:59;2.20;;;2.03;;
26594;SDS011;14238;49.496;8.154;2024-02-16T13:33:26;2.77;;;2.57;;
26594;SDS011;14238;49.496;8.154;2024-02-16T13:35:51;2.77;;;2.50;;
26594;SDS011;14238;49.496;8.154;2024-02-16T13:38:19;2.27;;;2.17;;
26594;SDS011;14238;49.496;8.154;2024-02-16T13:40:46;3.73;;;2.50;;
26594;SDS011;14238;49.496;8.154;2024-02-16T13:43:14;3.00;;;2.30;;
26594;SDS011;14238;49.496;8.154;2024-02-16T13:45:51;3.63;;;2.50;;
26594;SDS011;14238;49.496;8.154;2024-02-16T13:48:20;2.90;;;2.37;;
26594;SDS011;14238;49.496;8.154;2024-02-16T13:50:47;2.57;;;2.37;;
26594;SDS011;14238;49.496;8.154;2024-02-16T13:53:15;2.60;;;2.40;;
26594;SDS011;14238;49.496;8.154;2024-02-16T13:55:42;2.80;;;2.60;;
26594;SDS011;14238;49.496;8.154;2024-02-16T13:58:10;3.87;;;2.60;;
26594;SDS011;14238;49.496;8.154;2024-02-16T14:00:36;2.80;;;2.60;;
26594;SDS011;14238;49.496;8.154;2024-02-16T14:03:04;2.90;;;2.63;;
26594;SDS011;14238;49.496;8.154;2024-02-16T14:05:33;2.40;;;2.20;;
26594;SDS011;14238;49.496;8.154;2024-02-16T14:08:00;2.83;;;1.93;;
26594;SDS011;14238;49.496;8.154;2024-02-16T14:10:28;3.90;;;2.43;;
26594;SDS011;14238;49.496;8.154;2024-02-16T14:12:54;5.83;;;2.63;;
26594;SDS011;14238;49.496;8.154;2024-02-16T14:15:19;4.03;;;2.60;;
26594;SDS011;14238;49.496;8.154;2024-02-16T14:17:45;2.60;;;2.40;;
26594;SDS011;14238;49.496;8.154;2024-02-16T14:20:10;3.07;;;2.80;;
26594;SDS011;14238;49.496;8.154;2024-02-16T14:22:37;3.00;;;2.77;;
26594;SDS011;14238;49.496;8.154;2024-02-16T14:25:04;2.57;;;2.13;;
26594;SDS011;14238;49.496;8.154;2024-02-16T14:27:31;2.73;;;2.53;;
26594;SDS011;14238;49.496;8.154;2024-02-16T14:29:58;2.93;;;2.30;;
26594;SDS011;14238;49.496;8.154;2024-02-16T14:32:24;2.63;;;2.43;;
26594;SDS011;14238;49.496;8.154;2024-02-16T14:34:51;2.50;;;2.30;;
26594;SDS011;14238;49.496;8.154;2024-02-16T14:37:18;3.70;;;2.90;;
26594;SDS011;14238;49.496;8.154;2024-02-16T14:39:45;5.60;;;2.83;;
26594;SDS011;14238;49.496;8.154;2024-02-16T14:42:13;2.80;;;2.60;;
26594;SDS011;14238;49.496;8.154;2024-02-16T14:44:40;2.50;;;2.07;;